KEM weather

Kemi-Tornio Airport
Kemi / Tornio, Lapland, Finland

Public forecast

Using degrees Celsius for public forecast. Weather courtesy of forecast.io.

Current aviation weather report (METAR) for Kemi-Tornio Airport

Retrieved 2020/04/07 07:20 UTC (9 minutes ago):

EFKE 070720Z AUTO 17010KT 9999 OVC008 01/M01 Q1009

Aviation forecast (TAF) for Kemi-Tornio Airport

Forecast is more than 12 hours old.

Retrieved 2015/01/12 15:42 UTC (5 years ago):

TAF EFKE 121433Z 1215/1312 03006KT CAVOK BECMG 1300/1302 9999 BKN015 FM130400 07008KT 9999 SCT014 BKN018 TEMPO 1304/1312 7000 -SN